sensor_id;sensor_type;location;lat;lon;timestamp;temperature;humidity
8105;DHT22;4095;48.942;9.104;2022-08-19T00:00:18;23.60;94.70
8105;DHT22;4095;48.942;9.104;2022-08-19T00:02:44;23.60;94.70
8105;DHT22;4095;48.942;9.104;2022-08-19T00:05:11;23.60;94.70
8105;DHT22;4095;48.942;9.104;2022-08-19T00:07:38;23.60;94.80
8105;DHT22;4095;48.942;9.104;2022-08-19T00:10:05;23.60;94.90
8105;DHT22;4095;48.942;9.104;2022-08-19T00:12:31;23.60;94.70
8105;DHT22;4095;48.942;9.104;2022-08-19T00:14:57;23.60;94.60
8105;DHT22;4095;48.942;9.104;2022-08-19T00:17:23;23.60;94.80
8105;DHT22;4095;48.942;9.104;2022-08-19T00:19:48;23.60;94.80
8105;DHT22;4095;48.942;9.104;2022-08-19T00:22:14;23.60;94.80
8105;DHT22;4095;48.942;9.104;2022-08-19T00:24:40;23.50;94.70
8105;DHT22;4095;48.942;9.104;2022-08-19T00:27:06;23.50;94.80
8105;DHT22;4095;48.942;9.104;2022-08-19T00:29:32;23.50;94.80
8105;DHT22;4095;48.942;9.104;2022-08-19T00:31:57;23.60;95.00
8105;DHT22;4095;48.942;9.104;2022-08-19T00:34:25;23.60;95.00
8105;DHT22;4095;48.942;9.104;2022-08-19T00:36:55;23.60;94.90
8105;DHT22;4095;48.942;9.104;2022-08-19T00:39:21;23.60;94.90
8105;DHT22;4095;48.942;9.104;2022-08-19T00:41:48;23.60;94.90
8105;DHT22;4095;48.942;9.104;2022-08-19T00:44:19;23.50;94.90
8105;DHT22;4095;48.942;9.104;2022-08-19T00:46:47;23.50;95.00
8105;DHT22;4095;48.942;9.104;2022-08-19T00:49:29;23.50;95.00
8105;DHT22;4095;48.942;9.104;2022-08-19T00:52:09;23.60;95.00
8105;DHT22;4095;48.942;9.104;2022-08-19T00:54:38;23.60;95.00
8105;DHT22;4095;48.942;9.104;2022-08-19T00:57:06;23.60;94.80
8105;DHT22;4095;48.942;9.104;2022-08-19T00:59:35;23.60;94.90
8105;DHT22;4095;48.942;9.104;2022-08-19T01:02:02;23.60;94.80
8105;DHT22;4095;48.942;9.104;2022-08-19T01:04:28;23.50;94.90
8105;DHT22;4095;48.942;9.104;2022-08-19T01:06:53;23.50;95.10
8105;DHT22;4095;48.942;9.104;2022-08-19T01:09:19;23.50;95.20
8105;DHT22;4095;48.942;9.104;2022-08-19T01:11:45;23.40;95.10
8105;DHT22;4095;48.942;9.104;2022-08-19T01:14:11;23.40;95.20
8105;DHT22;4095;48.942;9.104;2022-08-19T01:16:39;23.30;95.20
8105;DHT22;4095;48.942;9.104;2022-08-19T01:21:56;23.30;95.30
8105;DHT22;4095;48.942;9.104;2022-08-19T01:24:23;23.30;95.20
8105;DHT22;4095;48.942;9.104;2022-08-19T01:26:49;23.30;95.30
8105;DHT22;4095;48.942;9.104;2022-08-19T01:29:15;23.30;95.20
8105;DHT22;4095;48.942;9.104;2022-08-19T01:31:40;23.30;95.20
8105;DHT22;4095;48.942;9.104;2022-08-19T01:34:07;23.30;95.30
8105;DHT22;4095;48.942;9.104;2022-08-19T01:36:38;23.40;95.30
8105;DHT22;4095;48.942;9.104;2022-08-19T01:39:09;23.30;95.20
8105;DHT22;4095;48.942;9.104;2022-08-19T01:41:36;23.30;95.20
8105;DHT22;4095;48.942;9.104;2022-08-19T01:44:04;23.30;95.30
8105;DHT22;4095;48.942;9.104;2022-08-19T01:46:31;23.30;95.30
8105;DHT22;4095;48.942;9.104;2022-08-19T01:48:57;23.40;95.40
8105;DHT22;4095;48.942;9.104;2022-08-19T01:51:23;23.40;95.20
8105;DHT22;4095;48.942;9.104;2022-08-19T01:53:49;23.40;95.30
8105;DHT22;4095;48.942;9.104;2022-08-19T01:56:16;23.40;95.40
8105;DHT22;4095;48.942;9.104;2022-08-19T01:58:49;23.40;95.30
8105;DHT22;4095;48.942;9.104;2022-08-19T02:01:16;23.50;95.20
8105;DHT22;4095;48.942;9.104;2022-08-19T02:03:42;23.50;95.30
8105;DHT22;4095;48.942;9.104;2022-08-19T02:06:08;23.40;95.20
8105;DHT22;4095;48.942;9.104;2022-08-19T02:08:37;23.40;95.30
8105;DHT22;4095;48.942;9.104;2022-08-19T02:11:04;23.40;95.30
8105;DHT22;4095;48.942;9.104;2022-08-19T02:13:30;23.30;95.30
8105;DHT22;4095;48.942;9.104;2022-08-19T02:15:56;23.30;95.40
8105;DHT22;4095;48.942;9.104;2022-08-19T02:18:22;23.30;95.50
8105;DHT22;4095;48.942;9.104;2022-08-19T02:20:47;23.30;95.40
8105;DHT22;4095;48.942;9.104;2022-08-19T02:23:14;23.20;95.60
8105;DHT22;4095;48.942;9.104;2022-08-19T02:25:41;23.20;95.60
8105;DHT22;4095;48.942;9.104;2022-08-19T02:28:07;23.20;95.50
8105;DHT22;4095;48.942;9.104;2022-08-19T02:30:33;23.30;95.60
8105;DHT22;4095;48.942;9.104;2022-08-19T02:32:59;23.30;95.60
8105;DHT22;4095;48.942;9.104;2022-08-19T02:35:25;23.20;95.60
8105;DHT22;4095;48.942;9.104;2022-08-19T02:37:51;23.20;95.50
8105;DHT22;4095;48.942;9.104;2022-08-19T02:40:34;23.20;95.60
8105;DHT22;4095;48.942;9.104;2022-08-19T02:43:02;23.30;95.80
8105;DHT22;4095;48.942;9.104;2022-08-19T02:45:32;23.20;95.70
8105;DHT22;4095;48.942;9.104;2022-08-19T02:47:58;23.20;95.60
8105;DHT22;4095;48.942;9.104;2022-08-19T02:50:24;23.10;95.60
8105;DHT22;4095;48.942;9.104;2022-08-19T02:52:49;23.20;95.70
8105;DHT22;4095;48.942;9.104;2022-08-19T02:55:15;23.10;95.60
8105;DHT22;4095;48.942;9.104;2022-08-19T02:57:40;23.10;95.60
8105;DHT22;4095;48.942;9.104;2022-08-19T03:00:08;23.20;95.80
8105;DHT22;4095;48.942;9.104;2022-08-19T03:02:36;23.10;95.70
8105;DHT22;4095;48.942;9.104;2022-08-19T03:05:03;23.10;95.70
8105;DHT22;4095;48.942;9.104;2022-08-19T03:07:29;23.20;95.70
8105;DHT22;4095;48.942;9.104;2022-08-19T03:09:55;23.20;95.70
8105;DHT22;4095;48.942;9.104;2022-08-19T03:12:21;23.10;95.70
8105;DHT22;4095;48.942;9.104;2022-08-19T03:14:47;23.10;95.70
8105;DHT22;4095;48.942;9.104;2022-08-19T03:17:12;23.10;95.70
8105;DHT22;4095;48.942;9.104;2022-08-19T03:19:38;23.10;95.70
8105;DHT22;4095;48.942;9.104;2022-08-19T03:22:04;23.10;95.90
8105;DHT22;4095;48.942;9.104;2022-08-19T03:24:30;23.00;95.70
8105;DHT22;4095;48.942;9.104;2022-08-19T03:26:56;23.00;95.80
8105;DHT22;4095;48.942;9.104;2022-08-19T03:29:23;22.90;96.00
8105;DHT22;4095;48.942;9.104;2022-08-19T03:31:48;22.90;96.00
8105;DHT22;4095;48.942;9.104;2022-08-19T03:34:20;22.80;96.10
8105;DHT22;4095;48.942;9.104;2022-08-19T03:36:46;22.90;96.20
8105;DHT22;4095;48.942;9.104;2022-08-19T03:39:12;22.90;96.20
8105;DHT22;4095;48.942;9.104;2022-08-19T03:41:40;22.90;96.20
8105;DHT22;4095;48.942;9.104;2022-08-19T03:44:06;22.90;96.20
8105;DHT22;4095;48.942;9.104;2022-08-19T03:46:34;22.90;96.40
8105;DHT22;4095;48.942;9.104;2022-08-19T03:49:02;22.90;96.70
8105;DHT22;4095;48.942;9.104;2022-08-19T03:51:36;22.80;96.60
8105;DHT22;4095;48.942;9.104;2022-08-19T03:54:05;22.90;96.60
8105;DHT22;4095;48.942;9.104;2022-08-19T03:56:34;22.80;96.80
8105;DHT22;4095;48.942;9.104;2022-08-19T03:59:00;22.80;96.60
8105;DHT22;4095;48.942;9.104;2022-08-19T04:01:28;22.80;96.80
8105;DHT22;4095;48.942;9.104;2022-08-19T04:03:56;22.80;96.70
8105;DHT22;4095;48.942;9.104;2022-08-19T04:06:27;22.80;96.60
8105;DHT22;4095;48.942;9.104;2022-08-19T04:08:54;22.80;96.80
8105;DHT22;4095;48.942;9.104;2022-08-19T04:11:42;22.80;96.70
8105;DHT22;4095;48.942;9.104;2022-08-19T04:14:10;22.80;96.70
8105;DHT22;4095;48.942;9.104;2022-08-19T04:16:37;22.80;96.80
8105;DHT22;4095;48.942;9.104;2022-08-19T04:19:04;22.70;96.80
8105;DHT22;4095;48.942;9.104;2022-08-19T04:21:30;22.70;96.70
8105;DHT22;4095;48.942;9.104;2022-08-19T04:23:56;22.70;96.70
8105;DHT22;4095;48.942;9.104;2022-08-19T04:26:25;22.70;96.70
8105;DHT22;4095;48.942;9.104;2022-08-19T04:28:52;22.70;96.70
8105;DHT22;4095;48.942;9.104;2022-08-19T04:31:24;22.60;96.70
8105;DHT22;4095;48.942;9.104;2022-08-19T04:33:54;22.50;96.80
8105;DHT22;4095;48.942;9.104;2022-08-19T04:36:24;22.60;96.90
8105;DHT22;4095;48.942;9.104;2022-08-19T04:38:56;22.60;96.80
8105;DHT22;4095;48.942;9.104;2022-08-19T04:41:23;22.60;96.80
8105;DHT22;4095;48.942;9.104;2022-08-19T04:44:07;22.60;96.80
8105;DHT22;4095;48.942;9.104;2022-08-19T04:46:33;22.60;96.90
8105;DHT22;4095;48.942;9.104;2022-08-19T04:49:02;22.60;97.00
8105;DHT22;4095;48.942;9.104;2022-08-19T04:51:28;22.50;96.80
8105;DHT22;4095;48.942;9.104;2022-08-19T04:53:56;22.50;96.90
8105;DHT22;4095;48.942;9.104;2022-08-19T04:56:22;22.40;96.90
8105;DHT22;4095;48.942;9.104;2022-08-19T04:58:48;22.40;97.00
8105;DHT22;4095;48.942;9.104;2022-08-19T05:01:21;22.40;97.00
8105;DHT22;4095;48.942;9.104;2022-08-19T05:03:47;22.40;97.10
8105;DHT22;4095;48.942;9.104;2022-08-19T05:06:14;22.50;97.10
8105;DHT22;4095;48.942;9.104;2022-08-19T05:08:42;22.50;97.00
8105;DHT22;4095;48.942;9.104;2022-08-19T05:11:22;22.50;96.90
8105;DHT22;4095;48.942;9.104;2022-08-19T05:13:48;22.50;96.90
8105;DHT22;4095;48.942;9.104;2022-08-19T05:16:16;22.50;97.00
8105;DHT22;4095;48.942;9.104;2022-08-19T05:18:42;22.50;97.10
8105;DHT22;4095;48.942;9.104;2022-08-19T05:21:26;22.60;97.00
8105;DHT22;4095;48.942;9.104;2022-08-19T05:24:12;22.60;96.90
8105;DHT22;4095;48.942;9.104;2022-08-19T05:26:40;22.50;96.80
8105;DHT22;4095;48.942;9.104;2022-08-19T05:29:09;22.50;96.80
8105;DHT22;4095;48.942;9.104;2022-08-19T05:31:36;22.50;97.00
8105;DHT22;4095;48.942;9.104;2022-08-19T05:34:04;22.60;97.20
8105;DHT22;4095;48.942;9.104;2022-08-19T05:36:35;22.60;97.00
8105;DHT22;4095;48.942;9.104;2022-08-19T05:39:02;22.60;97.00
8105;DHT22;4095;48.942;9.104;2022-08-19T05:41:29;22.60;97.00
8105;DHT22;4095;48.942;9.104;2022-08-19T05:44:02;22.70;97.20
8105;DHT22;4095;48.942;9.104;2022-08-19T05:46:28;22.70;97.00
8105;DHT22;4095;48.942;9.104;2022-08-19T05:48:54;22.60;96.80
8105;DHT22;4095;48.942;9.104;2022-08-19T05:51:22;22.70;97.00
8105;DHT22;4095;48.942;9.104;2022-08-19T05:53:50;22.60;97.00
8105;DHT22;4095;48.942;9.104;2022-08-19T05:56:16;22.60;96.90
8105;DHT22;4095;48.942;9.104;2022-08-19T05:58:44;22.60;96.90
8105;DHT22;4095;48.942;9.104;2022-08-19T06:01:16;22.60;97.00
8105;DHT22;4095;48.942;9.104;2022-08-19T06:03:42;22.60;96.90
8105;DHT22;4095;48.942;9.104;2022-08-19T06:06:10;22.60;96.90
8105;DHT22;4095;48.942;9.104;2022-08-19T06:08:36;22.70;96.90
8105;DHT22;4095;48.942;9.104;2022-08-19T06:11:15;22.70;96.80
8105;DHT22;4095;48.942;9.104;2022-08-19T06:13:41;22.70;96.70
8105;DHT22;4095;48.942;9.104;2022-08-19T06:16:07;22.70;96.60
8105;DHT22;4095;48.942;9.104;2022-08-19T06:18:32;22.70;96.60
8105;DHT22;4095;48.942;9.104;2022-08-19T06:20:58;22.70;96.60
8105;DHT22;4095;48.942;9.104;2022-08-19T06:23:24;22.70;96.60
8105;DHT22;4095;48.942;9.104;2022-08-19T06:25:51;22.70;96.60
8105;DHT22;4095;48.942;9.104;2022-08-19T06:28:16;22.80;96.80
8105;DHT22;4095;48.942;9.104;2022-08-19T06:30:42;22.80;96.80
8105;DHT22;4095;48.942;9.104;2022-08-19T06:33:07;22.80;96.50
8105;DHT22;4095;48.942;9.104;2022-08-19T06:35:33;22.80;96.60
8105;DHT22;4095;48.942;9.104;2022-08-19T06:38:03;22.80;96.70
8105;DHT22;4095;48.942;9.104;2022-08-19T06:40:30;22.90;96.70
8105;DHT22;4095;48.942;9.104;2022-08-19T06:42:55;22.90;96.60
8105;DHT22;4095;48.942;9.104;2022-08-19T06:45:24;22.90;96.50
8105;DHT22;4095;48.942;9.104;2022-08-19T06:47:52;22.90;96.50
8105;DHT22;4095;48.942;9.104;2022-08-19T06:50:24;23.00;96.60
8105;DHT22;4095;48.942;9.104;2022-08-19T06:52:53;22.90;96.60
8105;DHT22;4095;48.942;9.104;2022-08-19T06:55:19;23.00;96.60
8105;DHT22;4095;48.942;9.104;2022-08-19T06:57:45;23.00;96.60
8105;DHT22;4095;48.942;9.104;2022-08-19T07:00:12;23.00;96.50
8105;DHT22;4095;48.942;9.104;2022-08-19T07:02:42;23.00;96.50
8105;DHT22;4095;48.942;9.104;2022-08-19T07:05:08;23.10;96.50
8105;DHT22;4095;48.942;9.104;2022-08-19T07:07:34;23.10;96.50
8105;DHT22;4095;48.942;9.104;2022-08-19T07:10:00;23.10;96.70
8105;DHT22;4095;48.942;9.104;2022-08-19T07:12:31;23.10;96.60
8105;DHT22;4095;48.942;9.104;2022-08-19T07:14:59;23.10;96.80
8105;DHT22;4095;48.942;9.104;2022-08-19T07:17:25;23.10;96.60
8105;DHT22;4095;48.942;9.104;2022-08-19T07:19:51;23.20;96.50
8105;DHT22;4095;48.942;9.104;2022-08-19T07:22:17;23.20;96.20
8105;DHT22;4095;48.942;9.104;2022-08-19T07:24:43;23.30;96.40
8105;DHT22;4095;48.942;9.104;2022-08-19T07:27:08;23.40;96.40
8105;DHT22;4095;48.942;9.104;2022-08-19T07:29:36;23.40;96.50
8105;DHT22;4095;48.942;9.104;2022-08-19T07:32:03;23.50;96.30
8105;DHT22;4095;48.942;9.104;2022-08-19T07:34:30;23.50;96.20
8105;DHT22;4095;48.942;9.104;2022-08-19T07:36:56;23.60;96.20
8105;DHT22;4095;48.942;9.104;2022-08-19T07:39:27;23.60;96.10
8105;DHT22;4095;48.942;9.104;2022-08-19T07:41:54;23.60;95.90
8105;DHT22;4095;48.942;9.104;2022-08-19T07:44:20;23.60;96.10
8105;DHT22;4095;48.942;9.104;2022-08-19T07:46:48;23.70;95.80
8105;DHT22;4095;48.942;9.104;2022-08-19T07:49:15;23.70;95.70
8105;DHT22;4095;48.942;9.104;2022-08-19T07:51:53;23.70;95.90
8105;DHT22;4095;48.942;9.104;2022-08-19T07:54:21;23.70;95.80
8105;DHT22;4095;48.942;9.104;2022-08-19T07:56:47;23.70;95.60
8105;DHT22;4095;48.942;9.104;2022-08-19T07:59:12;23.70;95.70
8105;DHT22;4095;48.942;9.104;2022-08-19T08:01:39;23.80;95.60
8105;DHT22;4095;48.942;9.104;2022-08-19T08:04:06;23.80;95.60
8105;DHT22;4095;48.942;9.104;2022-08-19T08:06:50;23.80;95.50
8105;DHT22;4095;48.942;9.104;2022-08-19T08:09:37;23.80;95.60
8105;DHT22;4095;48.942;9.104;2022-08-19T08:12:10;23.80;95.60
8105;DHT22;4095;48.942;9.104;2022-08-19T08:14:40;23.80;95.50
8105;DHT22;4095;48.942;9.104;2022-08-19T08:17:08;23.80;95.90
8105;DHT22;4095;48.942;9.104;2022-08-19T08:19:34;23.80;95.70
8105;DHT22;4095;48.942;9.104;2022-08-19T08:22:01;23.80;95.70
8105;DHT22;4095;48.942;9.104;2022-08-19T08:24:28;23.80;95.70
8105;DHT22;4095;48.942;9.104;2022-08-19T08:26:56;23.80;95.70
8105;DHT22;4095;48.942;9.104;2022-08-19T08:29:22;23.80;95.70
8105;DHT22;4095;48.942;9.104;2022-08-19T08:31:48;23.90;95.70
8105;DHT22;4095;48.942;9.104;2022-08-19T08:34:14;23.90;95.60
8105;DHT22;4095;48.942;9.104;2022-08-19T08:36:45;23.90;95.50
8105;DHT22;4095;48.942;9.104;2022-08-19T08:39:16;23.90;95.70
8105;DHT22;4095;48.942;9.104;2022-08-19T08:44:23;23.90;95.80
8105;DHT22;4095;48.942;9.104;2022-08-19T08:46:56;23.90;95.80
8105;DHT22;4095;48.942;9.104;2022-08-19T08:49:47;23.90;96.00
8105;DHT22;4095;48.942;9.104;2022-08-19T08:52:21;23.90;95.90
8105;DHT22;4095;48.942;9.104;2022-08-19T08:54:49;23.90;95.90
8105;DHT22;4095;48.942;9.104;2022-08-19T08:57:39;24.00;96.00
8105;DHT22;4095;48.942;9.104;2022-08-19T09:00:12;24.00;96.00
8105;DHT22;4095;48.942;9.104;2022-08-19T09:02:39;24.00;96.00
8105;DHT22;4095;48.942;9.104;2022-08-19T09:05:05;24.10;96.10
8105;DHT22;4095;48.942;9.104;2022-08-19T09:10:22;24.20;96.00
8105;DHT22;4095;48.942;9.104;2022-08-19T09:13:19;24.30;95.80
8105;DHT22;4095;48.942;9.104;2022-08-19T09:15:58;24.30;95.70
8105;DHT22;4095;48.942;9.104;2022-08-19T09:18:32;24.30;95.80
8105;DHT22;4095;48.942;9.104;2022-08-19T09:21:03;24.40;95.80
8105;DHT22;4095;48.942;9.104;2022-08-19T09:23:28;24.40;95.80
8105;DHT22;4095;48.942;9.104;2022-08-19T09:25:54;24.40;95.60
8105;DHT22;4095;48.942;9.104;2022-08-19T09:28:19;24.40;95.70
8105;DHT22;4095;48.942;9.104;2022-08-19T09:30:45;24.50;95.70
8105;DHT22;4095;48.942;9.104;2022-08-19T09:33:10;24.50;95.60
8105;DHT22;4095;48.942;9.104;2022-08-19T09:35:36;24.50;95.70
8105;DHT22;4095;48.942;9.104;2022-08-19T09:38:02;24.50;95.70
8105;DHT22;4095;48.942;9.104;2022-08-19T09:40:28;24.50;95.60
8105;DHT22;4095;48.942;9.104;2022-08-19T09:42:54;24.50;95.70
8105;DHT22;4095;48.942;9.104;2022-08-19T09:45:21;24.50;95.40
8105;DHT22;4095;48.942;9.104;2022-08-19T09:47:48;24.50;95.70
8105;DHT22;4095;48.942;9.104;2022-08-19T09:50:14;24.50;95.80
8105;DHT22;4095;48.942;9.104;2022-08-19T09:52:39;24.50;95.60
8105;DHT22;4095;48.942;9.104;2022-08-19T09:55:09;24.50;95.70
8105;DHT22;4095;48.942;9.104;2022-08-19T09:57:35;24.60;95.80
8105;DHT22;4095;48.942;9.104;2022-08-19T10:00:03;24.60;95.90
8105;DHT22;4095;48.942;9.104;2022-08-19T10:02:28;24.60;95.50
8105;DHT22;4095;48.942;9.104;2022-08-19T10:04:54;24.60;95.50
8105;DHT22;4095;48.942;9.104;2022-08-19T10:07:38;24.70;95.60
8105;DHT22;4095;48.942;9.104;2022-08-19T10:10:06;24.70;95.70
8105;DHT22;4095;48.942;9.104;2022-08-19T10:12:32;24.70;95.70
8105;DHT22;4095;48.942;9.104;2022-08-19T10:14:59;24.70;95.60
8105;DHT22;4095;48.942;9.104;2022-08-19T10:17:24;24.80;95.40
8105;DHT22;4095;48.942;9.104;2022-08-19T10:19:51;24.80;95.30
8105;DHT22;4095;48.942;9.104;2022-08-19T10:22:18;24.80;95.20
8105;DHT22;4095;48.942;9.104;2022-08-19T10:24:47;24.80;95.20
8105;DHT22;4095;48.942;9.104;2022-08-19T10:27:12;24.90;95.20
8105;DHT22;4095;48.942;9.104;2022-08-19T10:29:39;24.90;95.20
8105;DHT22;4095;48.942;9.104;2022-08-19T10:32:07;25.00;94.80
8105;DHT22;4095;48.942;9.104;2022-08-19T10:34:35;25.00;94.90
8105;DHT22;4095;48.942;9.104;2022-08-19T10:37:02;25.10;94.60
8105;DHT22;4095;48.942;9.104;2022-08-19T10:39:32;25.10;94.20
8105;DHT22;4095;48.942;9.104;2022-08-19T10:41:58;25.10;94.20
8105;DHT22;4095;48.942;9.104;2022-08-19T10:44:24;25.20;94.20
8105;DHT22;4095;48.942;9.104;2022-08-19T10:46:50;25.30;94.30
8105;DHT22;4095;48.942;9.104;2022-08-19T10:49:17;25.30;94.10
8105;DHT22;4095;48.942;9.104;2022-08-19T10:51:44;25.40;94.10
8105;DHT22;4095;48.942;9.104;2022-08-19T10:54:29;25.50;94.00
8105;DHT22;4095;48.942;9.104;2022-08-19T10:57:14;25.50;93.80
8105;DHT22;4095;48.942;9.104;2022-08-19T10:59:40;25.60;93.80
8105;DHT22;4095;48.942;9.104;2022-08-19T11:02:09;25.60;93.50
8105;DHT22;4095;48.942;9.104;2022-08-19T11:04:36;25.60;93.50
8105;DHT22;4095;48.942;9.104;2022-08-19T11:07:03;25.60;93.40
8105;DHT22;4095;48.942;9.104;2022-08-19T11:09:30;25.60;93.40
8105;DHT22;4095;48.942;9.104;2022-08-19T11:11:56;25.60;93.30
8105;DHT22;4095;48.942;9.104;2022-08-19T11:14:22;25.50;93.50
8105;DHT22;4095;48.942;9.104;2022-08-19T11:16:50;25.60;93.50
8105;DHT22;4095;48.942;9.104;2022-08-19T11:19:17;25.50;93.30
8105;DHT22;4095;48.942;9.104;2022-08-19T11:21:46;25.60;93.20
8105;DHT22;4095;48.942;9.104;2022-08-19T11:24:20;25.50;93.20
8105;DHT22;4095;48.942;9.104;2022-08-19T11:26:47;25.60;93.10
8105;DHT22;4095;48.942;9.104;2022-08-19T11:29:18;25.60;93.10
8105;DHT22;4095;48.942;9.104;2022-08-19T11:31:47;25.60;93.30
8105;DHT22;4095;48.942;9.104;2022-08-19T11:34:17;25.60;93.20
8105;DHT22;4095;48.942;9.104;2022-08-19T11:36:45;25.70;93.10
8105;DHT22;4095;48.942;9.104;2022-08-19T11:39:13;25.70;93.00
8105;DHT22;4095;48.942;9.104;2022-08-19T11:41:39;25.70;93.10
8105;DHT22;4095;48.942;9.104;2022-08-19T11:44:05;25.80;93.10
8105;DHT22;4095;48.942;9.104;2022-08-19T11:46:34;25.80;93.10
8105;DHT22;4095;48.942;9.104;2022-08-19T11:49:01;25.90;93.10
8105;DHT22;4095;48.942;9.104;2022-08-19T11:51:29;25.90;93.10
8105;DHT22;4095;48.942;9.104;2022-08-19T11:53:57;26.00;92.50
8105;DHT22;4095;48.942;9.104;2022-08-19T11:56:23;26.00;92.40
8105;DHT22;4095;48.942;9.104;2022-08-19T11:58:49;26.00;92.50
8105;DHT22;4095;48.942;9.104;2022-08-19T12:01:18;26.00;92.40
8105;DHT22;4095;48.942;9.104;2022-08-19T12:03:45;25.90;92.00
8105;DHT22;4095;48.942;9.104;2022-08-19T12:06:13;25.90;91.90
8105;DHT22;4095;48.942;9.104;2022-08-19T12:08:40;25.90;92.00
8105;DHT22;4095;48.942;9.104;2022-08-19T12:11:07;25.90;92.10
8105;DHT22;4095;48.942;9.104;2022-08-19T12:13:36;25.90;92.20
8105;DHT22;4095;48.942;9.104;2022-08-19T12:16:10;25.90;92.10
8105;DHT22;4095;48.942;9.104;2022-08-19T12:18:41;25.90;92.00
8105;DHT22;4095;48.942;9.104;2022-08-19T12:21:09;26.00;92.10
8105;DHT22;4095;48.942;9.104;2022-08-19T12:23:36;26.00;91.70
8105;DHT22;4095;48.942;9.104;2022-08-19T12:26:02;26.00;91.50
8105;DHT22;4095;48.942;9.104;2022-08-19T12:28:29;26.00;91.70
8105;DHT22;4095;48.942;9.104;2022-08-19T12:30:56;26.10;91.60
8105;DHT22;4095;48.942;9.104;2022-08-19T12:33:22;26.10;91.20
8105;DHT22;4095;48.942;9.104;2022-08-19T12:35:53;26.10;91.20
8105;DHT22;4095;48.942;9.104;2022-08-19T12:38:18;26.10;91.10
8105;DHT22;4095;48.942;9.104;2022-08-19T12:40:48;26.10;91.40
8105;DHT22;4095;48.942;9.104;2022-08-19T12:43:14;26.10;91.00
8105;DHT22;4095;48.942;9.104;2022-08-19T12:45:41;26.10;91.20
8105;DHT22;4095;48.942;9.104;2022-08-19T12:48:07;26.10;91.20
8105;DHT22;4095;48.942;9.104;2022-08-19T12:50:33;26.10;90.90
8105;DHT22;4095;48.942;9.104;2022-08-19T12:52:59;26.10;91.00
8105;DHT22;4095;48.942;9.104;2022-08-19T12:55:24;26.00;90.90
8105;DHT22;4095;48.942;9.104;2022-08-19T12:57:50;26.00;90.70
8105;DHT22;4095;48.942;9.104;2022-08-19T13:00:18;26.00;90.70
8105;DHT22;4095;48.942;9.104;2022-08-19T13:02:47;26.00;90.90
8105;DHT22;4095;48.942;9.104;2022-08-19T13:05:17;26.00;90.70
8105;DHT22;4095;48.942;9.104;2022-08-19T13:07:46;26.00;90.90
8105;DHT22;4095;48.942;9.104;2022-08-19T13:10:14;26.00;90.90
8105;DHT22;4095;48.942;9.104;2022-08-19T13:12:41;26.00;90.70
8105;DHT22;4095;48.942;9.104;2022-08-19T13:15:07;26.00;90.60
8105;DHT22;4095;48.942;9.104;2022-08-19T13:17:34;26.00;90.50
8105;DHT22;4095;48.942;9.104;2022-08-19T13:20:00;26.00;90.80
8105;DHT22;4095;48.942;9.104;2022-08-19T13:22:26;26.00;90.70
8105;DHT22;4095;48.942;9.104;2022-08-19T13:24:52;26.00;90.90
8105;DHT22;4095;48.942;9.104;2022-08-19T13:27:18;26.00;90.70
8105;DHT22;4095;48.942;9.104;2022-08-19T13:29:43;26.00;90.60
8105;DHT22;4095;48.942;9.104;2022-08-19T13:32:28;26.00;90.90
8105;DHT22;4095;48.942;9.104;2022-08-19T13:35:13;26.00;91.20
8105;DHT22;4095;48.942;9.104;2022-08-19T13:37:38;25.90;90.80
8105;DHT22;4095;48.942;9.104;2022-08-19T13:40:10;25.90;90.50
8105;DHT22;4095;48.942;9.104;2022-08-19T13:42:39;25.90;90.60
8105;DHT22;4095;48.942;9.104;2022-08-19T13:45:05;25.90;90.60
8105;DHT22;4095;48.942;9.104;2022-08-19T13:47:32;26.00;90.80
8105;DHT22;4095;48.942;9.104;2022-08-19T13:50:03;25.90;91.00
8105;DHT22;4095;48.942;9.104;2022-08-19T13:52:28;26.00;90.70
8105;DHT22;4095;48.942;9.104;2022-08-19T13:54:54;26.00;90.90
8105;DHT22;4095;48.942;9.104;2022-08-19T13:57:20;26.00;90.80
8105;DHT22;4095;48.942;9.104;2022-08-19T13:59:46;26.10;91.00
8105;DHT22;4095;48.942;9.104;2022-08-19T14:02:11;26.10;91.00
8105;DHT22;4095;48.942;9.104;2022-08-19T14:04:37;26.20;91.10
8105;DHT22;4095;48.942;9.104;2022-08-19T14:07:03;26.10;89.50
8105;DHT22;4095;48.942;9.104;2022-08-19T14:09:29;26.20;88.00
8105;DHT22;4095;48.942;9.104;2022-08-19T14:11:55;26.30;87.60
8105;DHT22;4095;48.942;9.104;2022-08-19T14:14:20;26.40;87.80
8105;DHT22;4095;48.942;9.104;2022-08-19T14:16:47;26.50;86.20
8105;DHT22;4095;48.942;9.104;2022-08-19T14:19:12;26.60;85.60
8105;DHT22;4095;48.942;9.104;2022-08-19T14:21:38;26.70;85.00
8105;DHT22;4095;48.942;9.104;2022-08-19T14:24:04;26.80;84.50
8105;DHT22;4095;48.942;9.104;2022-08-19T14:26:30;26.80;84.90
8105;DHT22;4095;48.942;9.104;2022-08-19T14:28:56;26.90;84.40
8105;DHT22;4095;48.942;9.104;2022-08-19T14:31:23;26.90;83.30
8105;DHT22;4095;48.942;9.104;2022-08-19T14:33:49;26.90;83.60
8105;DHT22;4095;48.942;9.104;2022-08-19T14:36:16;26.90;82.70
8105;DHT22;4095;48.942;9.104;2022-08-19T14:38:42;27.00;82.70
8105;DHT22;4095;48.942;9.104;2022-08-19T14:41:21;27.00;82.30
8105;DHT22;4095;48.942;9.104;2022-08-19T14:43:48;27.00;82.70
8105;DHT22;4095;48.942;9.104;2022-08-19T14:46:16;27.00;83.40
8105;DHT22;4095;48.942;9.104;2022-08-19T14:48:43;27.10;83.20
8105;DHT22;4095;48.942;9.104;2022-08-19T14:51:09;27.10;82.40
8105;DHT22;4095;48.942;9.104;2022-08-19T14:53:34;27.10;81.70
8105;DHT22;4095;48.942;9.104;2022-08-19T14:56:01;27.10;82.20
8105;DHT22;4095;48.942;9.104;2022-08-19T14:58:28;27.10;81.50
8105;DHT22;4095;48.942;9.104;2022-08-19T15:00:53;27.10;82.30
8105;DHT22;4095;48.942;9.104;2022-08-19T15:03:19;27.10;82.70
8105;DHT22;4095;48.942;9.104;2022-08-19T15:05:44;27.10;81.60
8105;DHT22;4095;48.942;9.104;2022-08-19T15:08:10;27.10;80.30
8105;DHT22;4095;48.942;9.104;2022-08-19T15:10:38;27.20;81.00
8105;DHT22;4095;48.942;9.104;2022-08-19T15:13:03;27.20;80.30
8105;DHT22;4095;48.942;9.104;2022-08-19T15:15:29;27.20;86.10
8105;DHT22;4095;48.942;9.104;2022-08-19T15:17:54;27.20;87.40
8105;DHT22;4095;48.942;9.104;2022-08-19T15:20:22;27.20;88.70
8105;DHT22;4095;48.942;9.104;2022-08-19T15:22:48;27.20;88.80
8105;DHT22;4095;48.942;9.104;2022-08-19T15:25:16;27.20;87.70
8105;DHT22;4095;48.942;9.104;2022-08-19T15:27:42;27.10;87.10
8105;DHT22;4095;48.942;9.104;2022-08-19T15:30:09;27.10;84.50
8105;DHT22;4095;48.942;9.104;2022-08-19T15:32:36;27.10;83.00
8105;DHT22;4095;48.942;9.104;2022-08-19T15:35:03;27.20;82.20
8105;DHT22;4095;48.942;9.104;2022-08-19T15:37:29;27.20;83.80
8105;DHT22;4095;48.942;9.104;2022-08-19T15:39:54;27.30;86.90
8105;DHT22;4095;48.942;9.104;2022-08-19T15:42:20;27.30;88.40
8105;DHT22;4095;48.942;9.104;2022-08-19T15:44:46;27.20;90.30
8105;DHT22;4095;48.942;9.104;2022-08-19T15:47:14;27.20;90.90
8105;DHT22;4095;48.942;9.104;2022-08-19T15:49:39;27.10;90.50
8105;DHT22;4095;48.942;9.104;2022-08-19T15:52:05;27.00;90.80
8105;DHT22;4095;48.942;9.104;2022-08-19T15:54:33;27.00;91.60
8105;DHT22;4095;48.942;9.104;2022-08-19T15:56:58;26.90;92.00
8105;DHT22;4095;48.942;9.104;2022-08-19T15:59:42;26.80;91.70
8105;DHT22;4095;48.942;9.104;2022-08-19T16:02:27;26.80;92.20
8105;DHT22;4095;48.942;9.104;2022-08-19T16:05:19;26.60;92.60
8105;DHT22;4095;48.942;9.104;2022-08-19T16:08:04;26.50;93.20
8105;DHT22;4095;48.942;9.104;2022-08-19T16:10:30;26.40;93.50
8105;DHT22;4095;48.942;9.104;2022-08-19T16:12:57;26.30;93.60
8105;DHT22;4095;48.942;9.104;2022-08-19T16:15:27;26.20;93.90